sensor_id;sensor_type;location;lat;lon;timestamp;pressure;altitude;pressure_sealevel;temperature;humidity
67980;BME280;54760;47.490;19.030;2023-04-08T00:02:18;100325.97;;;5.57;81.60
67980;BME280;54760;47.490;19.030;2023-04-08T00:04:44;100320.53;;;5.06;84.55
67980;BME280;54760;47.490;19.030;2023-04-08T00:07:09;100320.81;;;5.41;83.79
67980;BME280;54760;47.490;19.030;2023-04-08T00:09:35;100320.22;;;5.14;83.68
67980;BME280;54760;47.490;19.030;2023-04-08T00:12:00;100322.94;;;5.14;84.03
67980;BME280;54760;47.490;19.030;2023-04-08T00:14:26;100319.59;;;5.35;82.70
67980;BME280;54760;47.490;19.030;2023-04-08T00:16:51;100322.41;;;5.53;81.80
67980;BME280;54760;47.490;19.030;2023-04-08T00:19:17;100322.41;;;5.46;82.23
67980;BME280;54760;47.490;19.030;2023-04-08T00:21:42;100326.25;;;5.45;82.72
67980;BME280;54760;47.490;19.030;2023-04-08T00:24:07;100324.66;;;5.37;82.32
67980;BME280;54760;47.490;19.030;2023-04-08T00:26:33;100322.94;;;5.14;83.16
67980;BME280;54760;47.490;19.030;2023-04-08T00:28:59;100336.00;;;5.53;82.01
67980;BME280;54760;47.490;19.030;2023-04-08T00:31:24;100328.50;;;5.90;79.52
67980;BME280;54760;47.490;19.030;2023-04-08T00:33:50;100331.31;;;5.46;81.65
67980;BME280;54760;47.490;19.030;2023-04-08T00:36:15;100330.38;;;5.24;83.51
67980;BME280;54760;47.490;19.030;2023-04-08T00:38:41;100331.84;;;5.66;82.07
67980;BME280;54760;47.490;19.030;2023-04-08T00:41:07;100325.37;;;5.27;81.61
67980;BME280;54760;47.490;19.030;2023-04-08T00:43:32;100330.22;;;5.03;82.36
67980;BME280;54760;47.490;19.030;2023-04-08T00:45:58;100331.50;;;5.20;82.33
67980;BME280;54760;47.490;19.030;2023-04-08T00:48:23;100323.97;;;5.47;80.16
67980;BME280;54760;47.490;19.030;2023-04-08T00:50:49;100331.31;;;5.46;80.24
67980;BME280;54760;47.490;19.030;2023-04-08T00:53:17;100326.97;;;5.35;81.47
67980;BME280;54760;47.490;19.030;2023-04-08T00:55:44;100334.06;;;5.53;80.83
67980;BME280;54760;47.490;19.030;2023-04-08T00:58:10;100333.56;;;5.99;78.62
67980;BME280;54760;47.490;19.030;2023-04-08T01:00:39;100325.84;;;6.04;77.79
67980;BME280;54760;47.490;19.030;2023-04-08T01:03:13;100330.91;;;5.44;81.78
67980;BME280;54760;47.490;19.030;2023-04-08T01:06:08;100329.19;;;5.80;80.09
67980;BME280;54760;47.490;19.030;2023-04-08T01:08:37;100328.50;;;5.90;79.31
67980;BME280;54760;47.490;19.030;2023-04-08T01:11:07;100333.06;;;5.79;79.94
67980;BME280;54760;47.490;19.030;2023-04-08T01:13:37;100328.00;;;5.74;81.27
67980;BME280;54760;47.490;19.030;2023-04-08T01:16:04;100329.78;;;5.52;81.72
67980;BME280;54760;47.490;19.030;2023-04-08T01:18:32;100333.94;;;5.90;80.16
67980;BME280;54760;47.490;19.030;2023-04-08T01:21:00;100329.66;;;5.96;79.74
67980;BME280;54760;47.490;19.030;2023-04-08T01:26:02;100336.66;;;5.94;79.67
67980;BME280;54760;47.490;19.030;2023-04-08T01:28:29;100338.97;;;5.88;80.15
67980;BME280;54760;47.490;19.030;2023-04-08T01:30:57;100334.84;;;5.50;82.48
67980;BME280;54760;47.490;19.030;2023-04-08T01:33:23;100330.28;;;5.65;81.82
67980;BME280;54760;47.490;19.030;2023-04-08T01:35:50;100330.62;;;5.05;84.80
67980;BME280;54760;47.490;19.030;2023-04-08T01:38:18;100329.81;;;5.56;82.96
67980;BME280;54760;47.490;19.030;2023-04-08T01:40:45;100321.94;;;5.98;80.69
67980;BME280;54760;47.490;19.030;2023-04-08T01:43:14;100333.91;;;5.87;80.88
67980;BME280;54760;47.490;19.030;2023-04-08T01:45:43;100324.31;;;6.14;79.47
67980;BME280;54760;47.490;19.030;2023-04-08T01:48:09;100329.16;;;5.15;83.85
67980;BME280;54760;47.490;19.030;2023-04-08T01:50:35;100329.56;;;5.17;84.82
67980;BME280;54760;47.490;19.030;2023-04-08T01:53:02;100329.59;;;5.24;84.47
67980;BME280;54760;47.490;19.030;2023-04-08T01:55:28;100328.66;;;5.02;85.54
67980;BME280;54760;47.490;19.030;2023-04-08T01:57:58;100322.97;;;5.76;82.77
67980;BME280;54760;47.490;19.030;2023-04-08T02:00:29;100325.78;;;4.85;86.74
67980;BME280;54760;47.490;19.030;2023-04-08T02:02:56;100320.78;;;4.90;87.42
67980;BME280;54760;47.490;19.030;2023-04-08T02:05:22;100319.88;;;4.75;86.44
67980;BME280;54760;47.490;19.030;2023-04-08T02:07:47;100322.22;;;4.77;87.84
67980;BME280;54760;47.490;19.030;2023-04-08T02:10:13;100327.75;;;5.39;84.66
67980;BME280;54760;47.490;19.030;2023-04-08T02:12:39;100319.97;;;5.34;83.99
67980;BME280;54760;47.490;19.030;2023-04-08T02:15:05;100328.34;;;5.14;84.88
67980;BME280;54760;47.490;19.030;2023-04-08T02:20:09;100331.25;;;4.88;87.62
67980;BME280;54760;47.490;19.030;2023-04-08T02:25:12;100322.56;;;4.72;87.72
67980;BME280;54760;47.490;19.030;2023-04-08T02:27:39;100321.22;;;4.92;86.93
67980;BME280;54760;47.490;19.030;2023-04-08T02:30:06;100322.16;;;4.70;87.76
67980;BME280;54760;47.490;19.030;2023-04-08T02:32:33;100325.41;;;4.46;89.58
67980;BME280;54760;47.490;19.030;2023-04-08T02:35:03;100322.44;;;4.98;86.24
67980;BME280;54760;47.490;19.030;2023-04-08T02:37:32;100322.41;;;5.46;84.46
67980;BME280;54760;47.490;19.030;2023-04-08T02:39:58;100322.41;;;5.53;83.73
67980;BME280;54760;47.490;19.030;2023-04-08T02:42:24;100324.03;;;5.61;83.05
67980;BME280;54760;47.490;19.030;2023-04-08T02:44:50;100317.28;;;5.99;81.49
67980;BME280;54760;47.490;19.030;2023-04-08T02:47:16;100322.41;;;5.53;83.18
67980;BME280;54760;47.490;19.030;2023-04-08T02:49:41;100317.19;;;5.85;80.45
67980;BME280;54760;47.490;19.030;2023-04-08T02:52:07;100316.50;;;5.98;80.73
67980;BME280;54760;47.490;19.030;2023-04-08T02:54:32;100319.97;;;5.34;83.16
67980;BME280;54760;47.490;19.030;2023-04-08T02:56:58;100317.34;;;4.93;84.41
67980;BME280;54760;47.490;19.030;2023-04-08T02:59:23;100313.22;;;4.66;84.58
67980;BME280;54760;47.490;19.030;2023-04-08T03:01:49;100323.69;;;5.11;83.90
67980;BME280;54760;47.490;19.030;2023-04-08T03:04:15;100326.00;;;5.09;83.46
67980;BME280;54760;47.490;19.030;2023-04-08T03:06:40;100323.53;;;5.41;82.21
67980;BME280;54760;47.490;19.030;2023-04-08T03:09:06;100329.78;;;5.52;80.53
67980;BME280;54760;47.490;19.030;2023-04-08T03:11:32;100320.94;;;5.62;81.25
67980;BME280;54760;47.490;19.030;2023-04-08T03:13:57;100327.03;;;5.42;82.34
67980;BME280;54760;47.490;19.030;2023-04-08T03:16:23;100322.84;;;5.55;80.96
67980;BME280;54760;47.490;19.030;2023-04-08T03:18:49;100324.31;;;5.42;82.09
67980;BME280;54760;47.490;19.030;2023-04-08T03:21:15;100323.09;;;5.36;82.75
67980;BME280;54760;47.490;19.030;2023-04-08T03:23:41;100324.91;;;5.79;81.19
67980;BME280;54760;47.490;19.030;2023-04-08T03:26:06;100335.00;;;5.82;80.57
67980;BME280;54760;47.490;19.030;2023-04-08T03:28:32;100335.16;;;6.03;78.90
67980;BME280;54760;47.490;19.030;2023-04-08T03:30:57;100332.34;;;5.86;79.65
67980;BME280;54760;47.490;19.030;2023-04-08T03:33:25;100338.78;;;5.60;81.03
67980;BME280;54760;47.490;19.030;2023-04-08T03:35:50;100331.97;;;5.33;81.98
67980;BME280;54760;47.490;19.030;2023-04-08T03:38:16;100332.03;;;4.89;85.30
67980;BME280;54760;47.490;19.030;2023-04-08T03:40:41;100339.75;;;5.34;83.20
67980;BME280;54760;47.490;19.030;2023-04-08T03:43:16;100342.44;;;5.27;83.89
67980;BME280;54760;47.490;19.030;2023-04-08T03:45:45;100337.97;;;5.05;85.04
67980;BME280;54760;47.490;19.030;2023-04-08T03:48:18;100349.37;;;5.24;84.96
67980;BME280;54760;47.490;19.030;2023-04-08T03:50:44;100343.28;;;5.38;83.34
67980;BME280;54760;47.490;19.030;2023-04-08T03:53:10;100343.94;;;5.83;82.22
67980;BME280;54760;47.490;19.030;2023-04-08T03:55:38;100345.34;;;5.55;82.90
67980;BME280;54760;47.490;19.030;2023-04-08T03:58:04;100354.22;;;5.49;82.72
67980;BME280;54760;47.490;19.030;2023-04-08T04:00:40;100355.53;;;5.18;84.92
67980;BME280;54760;47.490;19.030;2023-04-08T04:03:06;100362.59;;;5.30;83.47
67980;BME280;54760;47.490;19.030;2023-04-08T04:05:31;100364.28;;;4.97;85.65
67980;BME280;54760;47.490;19.030;2023-04-08T04:07:58;100356.22;;;5.08;85.68
67980;BME280;54760;47.490;19.030;2023-04-08T04:10:24;100361.28;;;4.69;87.09
67980;BME280;54760;47.490;19.030;2023-04-08T04:12:50;100362.63;;;4.49;87.69
67980;BME280;54760;47.490;19.030;2023-04-08T04:15:15;100359.44;;;5.20;84.80
67980;BME280;54760;47.490;19.030;2023-04-08T04:17:41;100365.50;;;5.03;84.40
67980;BME280;54760;47.490;19.030;2023-04-08T04:20:06;100367.84;;;5.08;85.75
67980;BME280;54760;47.490;19.030;2023-04-08T04:22:32;100370.19;;;5.10;84.91
67980;BME280;54760;47.490;19.030;2023-04-08T04:24:57;100373.28;;;4.68;86.98
67980;BME280;54760;47.490;19.030;2023-04-08T04:27:23;100369.31;;;4.58;88.10
67980;BME280;54760;47.490;19.030;2023-04-08T04:29:48;100366.09;;;4.86;87.08
67980;BME280;54760;47.490;19.030;2023-04-08T04:32:14;100373.22;;;5.01;85.93
67980;BME280;54760;47.490;19.030;2023-04-08T04:34:39;100376.69;;;5.46;84.73
67980;BME280;54760;47.490;19.030;2023-04-08T04:37:05;100372.34;;;5.38;84.50
67980;BME280;54760;47.490;19.030;2023-04-08T04:39:30;100370.41;;;5.35;84.60
67980;BME280;54760;47.490;19.030;2023-04-08T04:41:55;100372.31;;;5.31;83.97
67980;BME280;54760;47.490;19.030;2023-04-08T04:44:21;100375.94;;;5.49;84.07
67980;BME280;54760;47.490;19.030;2023-04-08T04:46:46;100375.38;;;5.80;82.43
67980;BME280;54760;47.490;19.030;2023-04-08T04:49:12;100373.13;;;5.38;83.13
67980;BME280;54760;47.490;19.030;2023-04-08T04:51:37;100388.03;;;4.70;87.18
67980;BME280;54760;47.490;19.030;2023-04-08T04:54:03;100382.28;;;4.79;86.89
67980;BME280;54760;47.490;19.030;2023-04-08T04:56:28;100382.09;;;4.58;87.03
67980;BME280;54760;47.490;19.030;2023-04-08T04:58:54;100376.13;;;4.78;86.98
67980;BME280;54760;47.490;19.030;2023-04-08T05:01:19;100380.09;;;4.55;87.16
67980;BME280;54760;47.490;19.030;2023-04-08T05:03:45;100385.22;;;5.00;85.68
67980;BME280;54760;47.490;19.030;2023-04-08T05:06:10;100387.03;;;4.86;85.71
67980;BME280;54760;47.490;19.030;2023-04-08T05:08:36;100395.28;;;4.96;85.59
67980;BME280;54760;47.490;19.030;2023-04-08T05:11:01;100391.97;;;5.17;84.62
67980;BME280;54760;47.490;19.030;2023-04-08T05:13:27;100396.37;;;4.92;84.91
67980;BME280;54760;47.490;19.030;2023-04-08T05:15:53;100397.09;;;4.85;85.63
67980;BME280;54760;47.490;19.030;2023-04-08T05:18:18;100390.38;;;5.63;82.25
67980;BME280;54760;47.490;19.030;2023-04-08T05:20:44;100396.25;;;5.69;81.48
67980;BME280;54760;47.490;19.030;2023-04-08T05:23:10;100390.09;;;5.76;81.42
67980;BME280;54760;47.490;19.030;2023-04-08T05:25:36;100393.28;;;5.88;80.60
67980;BME280;54760;47.490;19.030;2023-04-08T05:28:02;100399.81;;;5.80;81.08
67980;BME280;54760;47.490;19.030;2023-04-08T05:30:27;100396.37;;;5.87;80.29
67980;BME280;54760;47.490;19.030;2023-04-08T05:32:53;100403.63;;;5.72;80.36
67980;BME280;54760;47.490;19.030;2023-04-08T05:35:18;100401.94;;;5.53;82.03
67980;BME280;54760;47.490;19.030;2023-04-08T05:37:44;100407.19;;;5.29;84.76
67980;BME280;54760;47.490;19.030;2023-04-08T05:40:10;100414.50;;;5.72;82.68
67980;BME280;54760;47.490;19.030;2023-04-08T05:42:35;100405.03;;;5.04;84.97
67980;BME280;54760;47.490;19.030;2023-04-08T05:45:01;100416.09;;;5.26;85.57
67980;BME280;54760;47.490;19.030;2023-04-08T05:47:26;100414.50;;;5.72;82.95
67980;BME280;54760;47.490;19.030;2023-04-08T05:49:52;100420.31;;;5.71;81.93
67980;BME280;54760;47.490;19.030;2023-04-08T05:52:17;100429.34;;;5.38;83.64
67980;BME280;54760;47.490;19.030;2023-04-08T05:54:42;100420.75;;;5.29;83.82
67980;BME280;54760;47.490;19.030;2023-04-08T05:57:08;100418.31;;;5.60;82.22
67980;BME280;54760;47.490;19.030;2023-04-08T05:59:34;100421.34;;;5.52;82.65
67980;BME280;54760;47.490;19.030;2023-04-08T06:01:59;100412.47;;;5.62;82.94
67980;BME280;54760;47.490;19.030;2023-04-08T06:04:25;100421.34;;;5.52;82.41
67980;BME280;54760;47.490;19.030;2023-04-08T06:06:50;100422.44;;;5.44;83.48
67980;BME280;54760;47.490;19.030;2023-04-08T06:09:16;100431.56;;;5.21;84.82
67980;BME280;54760;47.490;19.030;2023-04-08T06:11:41;100431.34;;;5.88;81.75
67980;BME280;54760;47.490;19.030;2023-04-08T06:14:07;100427.94;;;5.51;82.44
67980;BME280;54760;47.490;19.030;2023-04-08T06:16:32;100430.44;;;5.77;82.00
67980;BME280;54760;47.490;19.030;2023-04-08T06:18:58;100435.03;;;5.66;82.01
67980;BME280;54760;47.490;19.030;2023-04-08T06:21:24;100432.59;;;5.50;83.98
67980;BME280;54760;47.490;19.030;2023-04-08T06:23:50;100429.69;;;5.33;85.04
67980;BME280;54760;47.490;19.030;2023-04-08T06:26:16;100436.00;;;5.44;83.46
67980;BME280;54760;47.490;19.030;2023-04-08T06:28:42;100441.66;;;5.24;84.39
67980;BME280;54760;47.490;19.030;2023-04-08T06:31:07;100446.34;;;4.87;86.98
67980;BME280;54760;47.490;19.030;2023-04-08T06:33:33;100448.22;;;4.83;87.13
67980;BME280;54760;47.490;19.030;2023-04-08T06:36:06;100451.44;;;4.92;85.78
67980;BME280;54760;47.490;19.030;2023-04-08T06:38:32;100447.91;;;4.88;nan
67980;BME280;54760;47.490;19.030;2023-04-08T06:41:05;100460.59;;;4.80;87.29
67980;BME280;54760;47.490;19.030;2023-04-08T06:43:31;100459.72;;;5.06;85.77
67980;BME280;54760;47.490;19.030;2023-04-08T06:45:57;100454.75;;;5.15;86.14
67980;BME280;54760;47.490;19.030;2023-04-08T06:48:24;100450.31;;;5.37;84.14
67980;BME280;54760;47.490;19.030;2023-04-08T06:50:55;100454.22;;;5.40;85.11
67980;BME280;54760;47.490;19.030;2023-04-08T06:53:24;100456.91;;;4.99;85.97
67980;BME280;54760;47.490;19.030;2023-04-08T06:55:50;100457.00;;;5.47;83.80
67980;BME280;54760;47.490;19.030;2023-04-08T06:58:16;100459.97;;;4.94;86.03
67980;BME280;54760;47.490;19.030;2023-04-08T07:00:42;100450.81;;;5.50;84.14
67980;BME280;54760;47.490;19.030;2023-04-08T07:03:08;100459.22;;;5.38;85.13
67980;BME280;54760;47.490;19.030;2023-04-08T07:05:37;100457.72;;;5.44;84.38
67980;BME280;54760;47.490;19.030;2023-04-08T07:08:04;100466.03;;;5.17;85.50
67980;BME280;54760;47.490;19.030;2023-04-08T07:10:29;100462.16;;;4.82;87.42
67980;BME280;54760;47.490;19.030;2023-04-08T07:12:55;100457.53;;;4.86;87.23
67980;BME280;54760;47.490;19.030;2023-04-08T07:15:21;100460.63;;;5.65;83.96
67980;BME280;54760;47.490;19.030;2023-04-08T07:17:52;100466.19;;;5.79;82.74
67980;BME280;54760;47.490;19.030;2023-04-08T07:20:24;100474.16;;;6.05;81.41
67980;BME280;54760;47.490;19.030;2023-04-08T07:22:50;100473.19;;;5.80;83.15
67980;BME280;54760;47.490;19.030;2023-04-08T07:25:16;100474.19;;;5.17;85.11
67980;BME280;54760;47.490;19.030;2023-04-08T07:27:41;100481.91;;;5.15;86.64
67980;BME280;54760;47.490;19.030;2023-04-08T07:30:07;100486.78;;;5.36;85.32
67980;BME280;54760;47.490;19.030;2023-04-08T07:32:33;100484.84;;;5.84;83.01
67980;BME280;54760;47.490;19.030;2023-04-08T07:35:02;100486.34;;;5.78;83.34
67980;BME280;54760;47.490;19.030;2023-04-08T07:37:27;100485.38;;;5.12;86.77
67980;BME280;54760;47.490;19.030;2023-04-08T07:39:53;100483.50;;;5.64;84.19
67980;BME280;54760;47.490;19.030;2023-04-08T07:42:18;100487.63;;;5.91;81.87
67980;BME280;54760;47.490;19.030;2023-04-08T07:44:44;100492.53;;;6.26;80.23
67980;BME280;54760;47.490;19.030;2023-04-08T07:47:10;100495.09;;;6.01;81.01
67980;BME280;54760;47.490;19.030;2023-04-08T07:49:36;100504.00;;;5.54;83.65
67980;BME280;54760;47.490;19.030;2023-04-08T07:52:02;100507.38;;;5.85;82.49
67980;BME280;54760;47.490;19.030;2023-04-08T07:54:27;100522.19;;;5.13;85.81
67980;BME280;54760;47.490;19.030;2023-04-08T07:56:55;100519.38;;;5.40;84.93
67980;BME280;54760;47.490;19.030;2023-04-08T07:59:21;100509.19;;;5.70;82.54
67980;BME280;54760;47.490;19.030;2023-04-08T08:01:46;100514.78;;;5.47;83.46
67980;BME280;54760;47.490;19.030;2023-04-08T08:04:11;100514.06;;;5.54;83.79
67980;BME280;54760;47.490;19.030;2023-04-08T08:06:37;100513.84;;;5.33;85.41
67980;BME280;54760;47.490;19.030;2023-04-08T08:09:03;100513.25;;;5.50;84.88
67980;BME280;54760;47.490;19.030;2023-04-08T08:11:28;100524.22;;;5.57;84.60
67980;BME280;54760;47.490;19.030;2023-04-08T08:13:54;100515.00;;;5.72;82.93
67980;BME280;54760;47.490;19.030;2023-04-08T08:16:19;100509.66;;;5.83;82.32
67980;BME280;54760;47.490;19.030;2023-04-08T08:18:45;100522.56;;;5.49;84.19
67980;BME280;54760;47.490;19.030;2023-04-08T08:21:10;100515.06;;;5.79;83.33
67980;BME280;54760;47.490;19.030;2023-04-08T08:23:36;100515.97;;;5.90;81.99
67980;BME280;54760;47.490;19.030;2023-04-08T08:26:06;100527.31;;;5.59;83.33
67980;BME280;54760;47.490;19.030;2023-04-08T08:28:34;100520.31;;;5.58;83.98
67980;BME280;54760;47.490;19.030;2023-04-08T08:30:59;100527.25;;;5.52;83.54
67980;BME280;54760;47.490;19.030;2023-04-08T08:33:25;100525.94;;;6.27;80.85
67980;BME280;54760;47.490;19.030;2023-04-08T08:35:51;100529.16;;;5.92;80.97
67980;BME280;54760;47.490;19.030;2023-04-08T08:38:17;100530.72;;;5.89;82.15
67980;BME280;54760;47.490;19.030;2023-04-08T08:40:43;100533.84;;;5.51;84.15
67980;BME280;54760;47.490;19.030;2023-04-08T08:43:11;100530.38;;;5.54;83.51
67980;BME280;54760;47.490;19.030;2023-04-08T08:45:40;100531.81;;;5.41;84.30
67980;BME280;54760;47.490;19.030;2023-04-08T08:48:06;100540.97;;;5.29;85.66
67980;BME280;54760;47.490;19.030;2023-04-08T08:50:33;100534.25;;;5.93;82.24
67980;BME280;54760;47.490;19.030;2023-04-08T08:52:58;100531.78;;;6.25;81.45
67980;BME280;54760;47.490;19.030;2023-04-08T08:55:29;100536.59;;;5.98;81.99
67980;BME280;54760;47.490;19.030;2023-04-08T08:58:03;100546.91;;;5.82;83.27
67980;BME280;54760;47.490;19.030;2023-04-08T09:00:38;100547.75;;;5.86;82.34
67980;BME280;54760;47.490;19.030;2023-04-08T09:03:25;100548.47;;;5.80;83.35
67980;BME280;54760;47.490;19.030;2023-04-08T09:06:03;100553.38;;;5.67;83.67
67980;BME280;54760;47.490;19.030;2023-04-08T09:08:34;100550.62;;;5.63;85.22
67980;BME280;54760;47.490;19.030;2023-04-08T09:11:17;100559.31;;;5.39;85.50
67980;BME280;54760;47.490;19.030;2023-04-08T09:13:51;100562.97;;;5.54;84.37
67980;BME280;54760;47.490;19.030;2023-04-08T09:16:23;100562.22;;;5.97;83.25
67980;BME280;54760;47.490;19.030;2023-04-08T09:18:49;100566.53;;;6.02;82.07
67980;BME280;54760;47.490;19.030;2023-04-08T09:21:27;100563.50;;;6.11;82.21
67980;BME280;54760;47.490;19.030;2023-04-08T09:24:25;100570.13;;;6.17;81.56
67980;BME280;54760;47.490;19.030;2023-04-08T09:27:13;100573.28;;;6.22;81.11
67980;BME280;54760;47.490;19.030;2023-04-08T09:29:42;100581.78;;;5.77;82.56
67980;BME280;54760;47.490;19.030;2023-04-08T09:32:46;100572.69;;;5.95;83.04
67980;BME280;54760;47.490;19.030;2023-04-08T09:35:12;100573.63;;;6.14;82.17
67980;BME280;54760;47.490;19.030;2023-04-08T09:37:37;100577.19;;;6.83;79.01
67980;BME280;54760;47.490;19.030;2023-04-08T09:40:03;100583.53;;;7.19;77.48
67980;BME280;54760;47.490;19.030;2023-04-08T09:42:29;100584.25;;;7.05;77.50
67980;BME280;54760;47.490;19.030;2023-04-08T09:44:55;100579.94;;;6.25;80.52
67980;BME280;54760;47.490;19.030;2023-04-08T09:47:24;100583.41;;;5.81;82.54
67980;BME280;54760;47.490;19.030;2023-04-08T09:50:01;100590.72;;;5.77;84.05
67980;BME280;54760;47.490;19.030;2023-04-08T09:52:32;100584.31;;;6.43;80.29
67980;BME280;54760;47.490;19.030;2023-04-08T09:55:04;100593.56;;;5.88;82.06
67980;BME280;54760;47.490;19.030;2023-04-08T09:57:45;100588.34;;;6.13;80.93
67980;BME280;54760;47.490;19.030;2023-04-08T10:00:15;100589.78;;;5.96;82.19
67980;BME280;54760;47.490;19.030;2023-04-08T10:02:54;100585.87;;;5.56;82.48
67980;BME280;54760;47.490;19.030;2023-04-08T10:05:24;100597.72;;;6.19;81.32
67980;BME280;54760;47.490;19.030;2023-04-08T10:07:50;100590.13;;;6.42;79.89
67980;BME280;54760;47.490;19.030;2023-04-08T10:10:16;100603.16;;;6.15;80.29
67980;BME280;54760;47.490;19.030;2023-04-08T10:12:42;100601.31;;;6.30;80.95
67980;BME280;54760;47.490;19.030;2023-04-08T10:15:27;100592.34;;;6.26;81.08
67980;BME280;54760;47.490;19.030;2023-04-08T10:17:55;100591.03;;;6.05;81.55
67980;BME280;54760;47.490;19.030;2023-04-08T10:23:09;100597.28;;;5.73;83.48
67980;BME280;54760;47.490;19.030;2023-04-08T10:25:42;100594.22;;;5.78;82.41
67980;BME280;54760;47.490;19.030;2023-04-08T10:33:15;100585.19;;;6.55;79.67
67980;BME280;54760;47.490;19.030;2023-04-08T10:36:10;100590.72;;;6.14;80.51
67980;BME280;54760;47.490;19.030;2023-04-08T10:38:37;100585.19;;;6.03;79.23
67980;BME280;54760;47.490;19.030;2023-04-08T10:41:03;100589.78;;;5.96;82.17
67980;BME280;54760;47.490;19.030;2023-04-08T10:43:32;100597.66;;;6.08;80.02
67980;BME280;54760;47.490;19.030;2023-04-08T10:45:58;100590.84;;;6.32;78.61
67980;BME280;54760;47.490;19.030;2023-04-08T10:48:24;100586.44;;;6.75;76.63
67980;BME280;54760;47.490;19.030;2023-04-08T10:50:57;100589.22;;;6.85;76.39
67980;BME280;54760;47.490;19.030;2023-04-08T10:53:35;100588.56;;;6.41;78.84
67980;BME280;54760;47.490;19.030;2023-04-08T10:56:05;100601.72;;;6.32;79.97
67980;BME280;54760;47.490;19.030;2023-04-08T10:58:31;100590.09;;;6.35;78.79
67980;BME280;54760;47.490;19.030;2023-04-08T11:01:02;100595.31;;;6.65;78.31
67980;BME280;54760;47.490;19.030;2023-04-08T11:03:31;100591.06;;;6.67;78.37
67980;BME280;54760;47.490;19.030;2023-04-08T11:05:58;100591.25;;;6.34;79.65
67980;BME280;54760;47.490;19.030;2023-04-08T11:08:28;100592.44;;;5.89;80.72
67980;BME280;54760;47.490;19.030;2023-04-08T11:10:54;100595.19;;;6.40;79.13
67980;BME280;54760;47.490;19.030;2023-04-08T11:13:19;100594.69;;;6.27;79.57
67980;BME280;54760;47.490;19.030;2023-04-08T11:15:46;100587.19;;;6.68;77.76
67980;BME280;54760;47.490;19.030;2023-04-08T11:18:12;100589.41;;;6.45;79.22
67980;BME280;54760;47.490;19.030;2023-04-08T11:20:37;100588.28;;;6.53;78.03
67980;BME280;54760;47.490;19.030;2023-04-08T11:23:11;100594.09;;;6.55;79.04
67980;BME280;54760;47.490;19.030;2023-04-08T11:25:36;100596.94;;;6.15;80.37
67980;BME280;54760;47.490;19.030;2023-04-08T11:28:02;100594.88;;;6.52;79.56
67980;BME280;54760;47.490;19.030;2023-04-08T11:30:28;100591.78;;;6.57;77.74
67980;BME280;54760;47.490;19.030;2023-04-08T11:32:54;100600.09;;;6.24;79.34
67980;BME280;54760;47.490;19.030;2023-04-08T11:35:21;100599.84;;;6.39;79.11
67980;BME280;54760;47.490;19.030;2023-04-08T11:37:46;100599.25;;;6.67;79.01
67980;BME280;54760;47.490;19.030;2023-04-08T11:40:19;100598.94;;;6.25;79.15
67980;BME280;54760;47.490;19.030;2023-04-08T11:42:45;100599.19;;;6.60;77.40
67980;BME280;54760;47.490;19.030;2023-04-08T11:45:12;100597.69;;;6.70;75.81
67980;BME280;54760;47.490;19.030;2023-04-08T11:47:38;100593.94;;;6.95;75.52
67980;BME280;54760;47.490;19.030;2023-04-08T11:50:04;100594.84;;;7.17;75.98
67980;BME280;54760;47.490;19.030;2023-04-08T11:52:42;100597.66;;;7.49;74.50
67980;BME280;54760;47.490;19.030;2023-04-08T11:55:09;100601.84;;;7.25;75.54
67980;BME280;54760;47.490;19.030;2023-04-08T11:57:36;100603.84;;;7.35;75.04
67980;BME280;54760;47.490;19.030;2023-04-08T12:00:02;100594.53;;;7.44;74.86
67980;BME280;54760;47.490;19.030;2023-04-08T12:02:29;100605.25;;;6.97;77.03
67980;BME280;54760;47.490;19.030;2023-04-08T12:04:55;100594.28;;;6.83;78.46
67980;BME280;54760;47.490;19.030;2023-04-08T12:07:20;100593.47;;;6.79;78.59
67980;BME280;54760;47.490;19.030;2023-04-08T12:09:46;100598.09;;;6.72;78.69
67980;BME280;54760;47.490;19.030;2023-04-08T12:12:11;100598.81;;;6.58;76.94
67980;BME280;54760;47.490;19.030;2023-04-08T12:14:37;100587.50;;;6.56;77.19
67980;BME280;54760;47.490;19.030;2023-04-08T12:17:02;100592.66;;;6.72;76.80
67980;BME280;54760;47.490;19.030;2023-04-08T12:19:28;100602.09;;;6.30;78.30
67980;BME280;54760;47.490;19.030;2023-04-08T12:21:53;100599.28;;;6.74;77.97
67980;BME280;54760;47.490;19.030;2023-04-08T12:24:19;100598.00;;;6.54;78.89
67980;BME280;54760;47.490;19.030;2023-04-08T12:26:45;100603.06;;;7.28;77.86
67980;BME280;54760;47.490;19.030;2023-04-08T12:29:10;100589.09;;;7.54;76.46
67980;BME280;54760;47.490;19.030;2023-04-08T12:31:36;100587.62;;;7.96;74.49
67980;BME280;54760;47.490;19.030;2023-04-08T12:34:01;100590.91;;;7.15;77.21
67980;BME280;54760;47.490;19.030;2023-04-08T12:36:27;100592.19;;;7.42;76.18
67980;BME280;54760;47.490;19.030;2023-04-08T12:38:52;100589.56;;;8.41;72.67
67980;BME280;54760;47.490;19.030;2023-04-08T12:41:18;100588.38;;;7.93;74.08
67980;BME280;54760;47.490;19.030;2023-04-08T12:43:43;100589.97;;;8.18;73.21
67980;BME280;54760;47.490;19.030;2023-04-08T12:46:08;100591.12;;;7.86;72.85
67980;BME280;54760;47.490;19.030;2023-04-08T12:48:34;100588.38;;;7.89;72.58
67980;BME280;54760;47.490;19.030;2023-04-08T12:50:59;100597.31;;;7.68;73.24
67980;BME280;54760;47.490;19.030;2023-04-08T12:53:25;100599.28;;;7.82;73.91
67980;BME280;54760;47.490;19.030;2023-04-08T12:55:50;100592.19;;;7.49;73.76
67980;BME280;54760;47.490;19.030;2023-04-08T12:58:19;100592.94;;;7.35;74.89
67980;BME280;54760;47.490;19.030;2023-04-08T13:00:45;100598.44;;;7.53;74.84
67980;BME280;54760;47.490;19.030;2023-04-08T13:03:11;100589.09;;;7.54;73.69
67980;BME280;54760;47.490;19.030;2023-04-08T13:05:37;100591.34;;;7.24;74.57
67980;BME280;54760;47.490;19.030;2023-04-08T13:08:03;100592.19;;;7.42;74.46